ADDS METAR Data

Data at: 0745 UTC 24 Oct 2017

METAR for:CYQI (Yarmouth Arpt, NS, CN)
Text:CYQI 240700Z 21008G16KT 15SM FEW034 16/15 A3024 RMK SC1 SC TR SLP244
Temperature: 16.0°C ( 61°F)
Dewpoint: 15.0°C ( 59°F) [RH = 94%]
Pressure (altimeter):30.24 inches Hg (1024.1 mb) [Sea level pressure: 1024.4 mb]
Winds:from the SSW (210 degrees) at 9 MPH (8 knots; 4.1 m/s) gusting to 18 MPH (16 knots; 8.2 m/s)
Visibility: 15 sm ( 24 km)
Ceiling:at least 12,000 feet AGL
Clouds: few clouds at 3400 feet AGL